This is the latest recevied weather packets stored in our database for station/object SV2JU-2. If no packets are shown the sender has not sent any weather packets the latest 1 day(s).
| Time | Temp. | Humidity | Pressure | Rain* | Wind** | Luminosity | Snow |
|---|---|---|---|---|---|---|---|
| 1778103725 | 18.33° C | 50% | 1015 hPa | 0 mm | - | - | - |
| 1778102974 | 18.33° C | 50% | 1016 hPa | 0 mm | - | - | - |
| 1778102225 | 18.33° C | 49% | 1016 hPa | 0 mm | - | - | - |
| 1778101474 | 18.33° C | 49% | 1016 hPa | 0 mm | - | - | - |
| 1778100725 | 18.89° C | 49% | 1016 hPa | 0 mm | - | - | - |
| 1778098474 | 18.89° C | 45% | 1015 hPa | 0 mm | - | - | - |
| 1778078973 | 23.89° C | 11% | 1014 hPa | 0 mm | - | - | - |
| 1778075076 | 24.44° C | 13% | 1014 hPa | 0 mm | - | - | - |
| 1778073576 | 24.44° C | 13% | 1015 hPa | 0 mm | - | - | - |
| 1778067575 | 23.33° C | 21% | 1015 hPa | 0 mm | - | - | - |
| 1778066826 | 23.33° C | 20% | 1015 hPa | 0 mm | - | - | - |
| 1778066075 | 23.33° C | 20% | 1016 hPa | 0 mm | - | - | - |
| 1778065326 | 23.33° C | 20% | 1016 hPa | 0 mm | - | - | - |
| 1778064575 | 23.33° C | 18% | 1016 hPa | 0 mm | - | - | - |
| 1778063826 | 23.33° C | 18% | 1016 hPa | 0 mm | - | - | - |
| 1778063075 | 23.33° C | 19% | 1016 hPa | 0 mm | - | - | - |
| 1778062328 | 23.33° C | 18% | 1016 hPa | 0 mm | - | - | - |
| 1778061575 | 23.33° C | 19% | 1016 hPa | 0 mm | - | - | - |
| 1778058575 | 22.78° C | 18% | 1016 hPa | 0 mm | - | - | - |
| 1778057075 | 22.78° C | 18% | 1016 hPa | 0 mm | - | - | - |
| 1778055575 | 22.78° C | 21% | 1016 hPa | 0 mm | - | - | - |
| 1778042074 | 18.33° C | 30% | 1015 hPa | 0 mm | - | - | - |
| 1778040574 | 16.67° C | 32% | 1015 hPa | 0 mm | - | - | - |
| 1778039073 | 16.11° C | 32% | 1015 hPa | 0 mm | - | - | - |
| 1778038324 | 16.11° C | 32% | 1015 hPa | 0 mm | - | - | - |
* Rain latest hour (hover to see other rain measurements)
** Current wind speed in m/s (hover to see current wind gust speed)